sensor_id;sensor_type;location;lat;lon;timestamp;P1;durP1;ratioP1;P2;durP2;ratioP2
12493;SDS011;8260;51.422;6.786;2022-09-27T00:00:47;4.05;;;1.88;;
12493;SDS011;8260;51.422;6.786;2022-09-27T00:03:15;7.47;;;2.03;;
12493;SDS011;8260;51.422;6.786;2022-09-27T00:05:45;5.70;;;2.40;;
12493;SDS011;8260;51.422;6.786;2022-09-27T00:08:13;5.05;;;2.20;;
12493;SDS011;8260;51.422;6.786;2022-09-27T00:10:42;7.25;;;2.00;;
12493;SDS011;8260;51.422;6.786;2022-09-27T00:13:10;5.60;;;2.00;;
12493;SDS011;8260;51.422;6.786;2022-09-27T00:15:39;6.93;;;3.00;;
12493;SDS011;8260;51.422;6.786;2022-09-27T00:18:07;7.95;;;3.90;;
12493;SDS011;8260;51.422;6.786;2022-09-27T00:20:36;11.27;;;4.60;;
12493;SDS011;8260;51.422;6.786;2022-09-27T00:23:05;12.60;;;5.38;;
12493;SDS011;8260;51.422;6.786;2022-09-27T00:25:34;20.08;;;7.22;;
12493;SDS011;8260;51.422;6.786;2022-09-27T00:28:02;17.05;;;7.80;;
12493;SDS011;8260;51.422;6.786;2022-09-27T00:30:30;20.25;;;8.15;;
12493;SDS011;8260;51.422;6.786;2022-09-27T00:32:59;13.82;;;5.93;;
12493;SDS011;8260;51.422;6.786;2022-09-27T00:35:27;13.32;;;5.45;;
12493;SDS011;8260;51.422;6.786;2022-09-27T00:37:55;15.63;;;5.88;;
12493;SDS011;8260;51.422;6.786;2022-09-27T00:40:25;11.70;;;5.20;;
12493;SDS011;8260;51.422;6.786;2022-09-27T00:42:54;10.30;;;4.45;;
12493;SDS011;8260;51.422;6.786;2022-09-27T00:45:23;7.90;;;2.72;;
12493;SDS011;8260;51.422;6.786;2022-09-27T00:47:52;6.45;;;3.00;;
12493;SDS011;8260;51.422;6.786;2022-09-27T00:50:23;13.88;;;4.03;;
12493;SDS011;8260;51.422;6.786;2022-09-27T00:53:02;12.65;;;5.95;;
12493;SDS011;8260;51.422;6.786;2022-09-27T00:55:34;14.18;;;5.80;;
12493;SDS011;8260;51.422;6.786;2022-09-27T00:58:03;10.57;;;5.28;;
12493;SDS011;8260;51.422;6.786;2022-09-27T01:00:32;13.35;;;5.90;;
12493;SDS011;8260;51.422;6.786;2022-09-27T01:03:00;14.90;;;6.15;;
12493;SDS011;8260;51.422;6.786;2022-09-27T01:05:33;13.55;;;6.85;;
12493;SDS011;8260;51.422;6.786;2022-09-27T01:08:01;14.27;;;7.78;;
12493;SDS011;8260;51.422;6.786;2022-09-27T01:10:31;16.58;;;7.85;;
12493;SDS011;8260;51.422;6.786;2022-09-27T01:13:06;17.05;;;7.22;;
12493;SDS011;8260;51.422;6.786;2022-09-27T01:15:39;13.25;;;7.03;;
12493;SDS011;8260;51.422;6.786;2022-09-27T01:18:16;12.25;;;5.93;;
12493;SDS011;8260;51.422;6.786;2022-09-27T01:20:52;11.88;;;5.47;;
12493;SDS011;8260;51.422;6.786;2022-09-27T01:23:41;14.45;;;6.10;;
12493;SDS011;8260;51.422;6.786;2022-09-27T01:26:15;12.00;;;5.68;;
12493;SDS011;8260;51.422;6.786;2022-09-27T01:28:53;10.95;;;5.88;;
12493;SDS011;8260;51.422;6.786;2022-09-27T01:31:26;10.68;;;5.55;;
12493;SDS011;8260;51.422;6.786;2022-09-27T01:33:58;8.10;;;5.53;;
12493;SDS011;8260;51.422;6.786;2022-09-27T01:36:30;11.57;;;5.15;;
12493;SDS011;8260;51.422;6.786;2022-09-27T01:39:06;10.57;;;5.05;;
12493;SDS011;8260;51.422;6.786;2022-09-27T01:41:36;7.70;;;4.50;;
12493;SDS011;8260;51.422;6.786;2022-09-27T01:44:07;7.93;;;4.82;;
12493;SDS011;8260;51.422;6.786;2022-09-27T01:46:38;11.65;;;4.95;;
12493;SDS011;8260;51.422;6.786;2022-09-27T01:49:09;5.85;;;4.63;;
12493;SDS011;8260;51.422;6.786;2022-09-27T01:51:40;6.90;;;5.13;;
12493;SDS011;8260;51.422;6.786;2022-09-27T01:54:13;7.43;;;4.68;;
12493;SDS011;8260;51.422;6.786;2022-09-27T01:56:43;6.68;;;4.53;;
12493;SDS011;8260;51.422;6.786;2022-09-27T01:59:14;10.35;;;4.95;;
12493;SDS011;8260;51.422;6.786;2022-09-27T02:01:45;6.28;;;4.93;;
12493;SDS011;8260;51.422;6.786;2022-09-27T02:04:16;8.80;;;5.13;;
12493;SDS011;8260;51.422;6.786;2022-09-27T02:06:47;12.57;;;5.13;;
12493;SDS011;8260;51.422;6.786;2022-09-27T02:09:17;13.82;;;6.40;;
12493;SDS011;8260;51.422;6.786;2022-09-27T02:11:47;7.60;;;5.97;;
12493;SDS011;8260;51.422;6.786;2022-09-27T02:14:23;11.52;;;5.70;;
12493;SDS011;8260;51.422;6.786;2022-09-27T02:16:53;9.35;;;6.07;;
12493;SDS011;8260;51.422;6.786;2022-09-27T02:19:26;7.20;;;5.40;;
12493;SDS011;8260;51.422;6.786;2022-09-27T02:22:00;9.60;;;5.25;;
12493;SDS011;8260;51.422;6.786;2022-09-27T02:24:35;12.38;;;5.70;;
12493;SDS011;8260;51.422;6.786;2022-09-27T02:27:08;9.15;;;5.00;;
12493;SDS011;8260;51.422;6.786;2022-09-27T02:29:40;9.98;;;5.38;;
12493;SDS011;8260;51.422;6.786;2022-09-27T02:32:11;9.60;;;5.30;;
12493;SDS011;8260;51.422;6.786;2022-09-27T02:34:40;7.82;;;5.15;;
12493;SDS011;8260;51.422;6.786;2022-09-27T02:37:09;7.13;;;5.30;;
12493;SDS011;8260;51.422;6.786;2022-09-27T02:39:38;11.85;;;5.28;;
12493;SDS011;8260;51.422;6.786;2022-09-27T02:42:06;9.25;;;5.40;;
12493;SDS011;8260;51.422;6.786;2022-09-27T02:44:34;10.23;;;5.10;;
12493;SDS011;8260;51.422;6.786;2022-09-27T02:47:07;10.40;;;5.57;;
12493;SDS011;8260;51.422;6.786;2022-09-27T02:49:47;11.50;;;6.60;;
12493;SDS011;8260;51.422;6.786;2022-09-27T02:52:19;9.95;;;5.55;;
12493;SDS011;8260;51.422;6.786;2022-09-27T02:54:51;9.68;;;5.40;;
12493;SDS011;8260;51.422;6.786;2022-09-27T02:57:26;7.55;;;6.25;;
12493;SDS011;8260;51.422;6.786;2022-09-27T03:00:00;10.88;;;6.57;;
12493;SDS011;8260;51.422;6.786;2022-09-27T03:02:32;9.65;;;5.78;;
12493;SDS011;8260;51.422;6.786;2022-09-27T03:05:05;7.93;;;5.47;;
12493;SDS011;8260;51.422;6.786;2022-09-27T03:07:35;9.43;;;5.75;;
12493;SDS011;8260;51.422;6.786;2022-09-27T03:10:05;10.52;;;5.70;;
12493;SDS011;8260;51.422;6.786;2022-09-27T03:12:34;12.63;;;6.82;;
12493;SDS011;8260;51.422;6.786;2022-09-27T03:15:02;10.32;;;6.50;;
12493;SDS011;8260;51.422;6.786;2022-09-27T03:17:31;10.23;;;5.55;;
12493;SDS011;8260;51.422;6.786;2022-09-27T03:20:00;15.20;;;6.68;;
12493;SDS011;8260;51.422;6.786;2022-09-27T03:22:29;19.25;;;7.40;;
12493;SDS011;8260;51.422;6.786;2022-09-27T03:24:58;9.60;;;6.25;;
12493;SDS011;8260;51.422;6.786;2022-09-27T03:27:26;8.73;;;5.75;;
12493;SDS011;8260;51.422;6.786;2022-09-27T03:29:54;8.05;;;5.45;;
12493;SDS011;8260;51.422;6.786;2022-09-27T03:32:23;10.95;;;5.40;;
12493;SDS011;8260;51.422;6.786;2022-09-27T03:34:51;8.90;;;5.70;;
12493;SDS011;8260;51.422;6.786;2022-09-27T03:37:20;9.27;;;5.50;;
12493;SDS011;8260;51.422;6.786;2022-09-27T03:39:50;10.27;;;5.43;;
12493;SDS011;8260;51.422;6.786;2022-09-27T03:42:18;7.55;;;5.22;;
12493;SDS011;8260;51.422;6.786;2022-09-27T03:44:47;6.95;;;5.22;;
12493;SDS011;8260;51.422;6.786;2022-09-27T03:47:16;7.18;;;4.72;;
12493;SDS011;8260;51.422;6.786;2022-09-27T03:49:44;6.85;;;4.53;;
12493;SDS011;8260;51.422;6.786;2022-09-27T03:52:13;7.35;;;4.35;;
12493;SDS011;8260;51.422;6.786;2022-09-27T03:54:41;9.02;;;4.05;;
12493;SDS011;8260;51.422;6.786;2022-09-27T03:57:11;7.68;;;4.07;;
12493;SDS011;8260;51.422;6.786;2022-09-27T03:59:39;5.55;;;4.10;;
12493;SDS011;8260;51.422;6.786;2022-09-27T04:02:08;8.52;;;4.00;;
12493;SDS011;8260;51.422;6.786;2022-09-27T04:04:36;5.40;;;3.50;;
12493;SDS011;8260;51.422;6.786;2022-09-27T04:07:05;7.05;;;3.58;;
12493;SDS011;8260;51.422;6.786;2022-09-27T04:09:35;6.97;;;3.28;;
12493;SDS011;8260;51.422;6.786;2022-09-27T04:12:09;7.53;;;3.78;;
12493;SDS011;8260;51.422;6.786;2022-09-27T04:14:39;5.75;;;3.60;;
12493;SDS011;8260;51.422;6.786;2022-09-27T04:17:08;6.88;;;3.72;;
12493;SDS011;8260;51.422;6.786;2022-09-27T04:19:36;8.90;;;3.63;;
12493;SDS011;8260;51.422;6.786;2022-09-27T04:22:05;7.88;;;3.90;;
12493;SDS011;8260;51.422;6.786;2022-09-27T04:24:34;7.07;;;2.90;;
12493;SDS011;8260;51.422;6.786;2022-09-27T04:27:02;7.22;;;2.95;;
12493;SDS011;8260;51.422;6.786;2022-09-27T04:29:30;6.47;;;3.63;;
12493;SDS011;8260;51.422;6.786;2022-09-27T04:32:00;6.57;;;2.80;;
12493;SDS011;8260;51.422;6.786;2022-09-27T04:34:28;8.32;;;3.15;;
12493;SDS011;8260;51.422;6.786;2022-09-27T04:37:14;7.82;;;3.08;;
12493;SDS011;8260;51.422;6.786;2022-09-27T04:39:43;4.57;;;2.30;;
12493;SDS011;8260;51.422;6.786;2022-09-27T04:42:11;5.45;;;3.08;;
12493;SDS011;8260;51.422;6.786;2022-09-27T04:44:39;5.75;;;2.80;;
12493;SDS011;8260;51.422;6.786;2022-09-27T04:47:09;5.32;;;2.10;;
12493;SDS011;8260;51.422;6.786;2022-09-27T04:49:38;5.90;;;2.25;;
12493;SDS011;8260;51.422;6.786;2022-09-27T04:52:06;7.15;;;2.65;;
12493;SDS011;8260;51.422;6.786;2022-09-27T04:54:35;7.85;;;3.00;;
12493;SDS011;8260;51.422;6.786;2022-09-27T04:57:03;5.13;;;2.70;;
12493;SDS011;8260;51.422;6.786;2022-09-27T04:59:31;5.78;;;2.47;;
12493;SDS011;8260;51.422;6.786;2022-09-27T05:02:00;4.35;;;2.35;;
12493;SDS011;8260;51.422;6.786;2022-09-27T05:04:29;3.10;;;2.00;;
12493;SDS011;8260;51.422;6.786;2022-09-27T05:06:58;3.17;;;1.83;;
12493;SDS011;8260;51.422;6.786;2022-09-27T05:09:26;5.47;;;1.88;;
12493;SDS011;8260;51.422;6.786;2022-09-27T05:11:55;4.78;;;1.80;;
12493;SDS011;8260;51.422;6.786;2022-09-27T05:14:23;5.28;;;2.30;;
12493;SDS011;8260;51.422;6.786;2022-09-27T05:16:56;8.50;;;2.42;;
12493;SDS011;8260;51.422;6.786;2022-09-27T05:19:25;3.42;;;1.80;;
12493;SDS011;8260;51.422;6.786;2022-09-27T05:21:55;4.13;;;1.95;;
12493;SDS011;8260;51.422;6.786;2022-09-27T05:24:24;7.05;;;2.50;;
12493;SDS011;8260;51.422;6.786;2022-09-27T05:26:53;6.43;;;1.85;;
12493;SDS011;8260;51.422;6.786;2022-09-27T05:29:21;4.93;;;1.73;;
12493;SDS011;8260;51.422;6.786;2022-09-27T05:31:50;5.07;;;2.15;;
12493;SDS011;8260;51.422;6.786;2022-09-27T05:34:18;4.32;;;1.92;;
12493;SDS011;8260;51.422;6.786;2022-09-27T05:36:47;6.15;;;2.10;;
12493;SDS011;8260;51.422;6.786;2022-09-27T05:39:17;8.00;;;2.03;;
12493;SDS011;8260;51.422;6.786;2022-09-27T05:41:45;7.72;;;2.22;;
12493;SDS011;8260;51.422;6.786;2022-09-27T05:44:16;6.53;;;2.03;;
12493;SDS011;8260;51.422;6.786;2022-09-27T05:46:44;4.60;;;2.00;;
12493;SDS011;8260;51.422;6.786;2022-09-27T05:49:13;6.60;;;1.73;;
12493;SDS011;8260;51.422;6.786;2022-09-27T05:51:41;3.65;;;1.85;;
12493;SDS011;8260;51.422;6.786;2022-09-27T05:54:10;4.20;;;1.98;;
12493;SDS011;8260;51.422;6.786;2022-09-27T05:56:39;6.30;;;2.10;;
12493;SDS011;8260;51.422;6.786;2022-09-27T05:59:08;5.07;;;2.13;;
12493;SDS011;8260;51.422;6.786;2022-09-27T06:01:36;4.00;;;2.00;;
12493;SDS011;8260;51.422;6.786;2022-09-27T06:04:05;4.10;;;2.08;;
12493;SDS011;8260;51.422;6.786;2022-09-27T06:06:34;4.80;;;1.88;;
12493;SDS011;8260;51.422;6.786;2022-09-27T06:09:03;2.67;;;1.77;;
12493;SDS011;8260;51.422;6.786;2022-09-27T06:11:31;5.18;;;1.85;;
12493;SDS011;8260;51.422;6.786;2022-09-27T06:14:01;5.20;;;1.98;;
12493;SDS011;8260;51.422;6.786;2022-09-27T06:16:29;4.97;;;1.80;;
12493;SDS011;8260;51.422;6.786;2022-09-27T06:18:58;5.10;;;1.83;;
12493;SDS011;8260;51.422;6.786;2022-09-27T06:21:26;4.90;;;1.80;;
12493;SDS011;8260;51.422;6.786;2022-09-27T06:23:56;7.80;;;2.63;;
12493;SDS011;8260;51.422;6.786;2022-09-27T06:26:25;5.78;;;2.50;;
12493;SDS011;8260;51.422;6.786;2022-09-27T06:28:53;5.63;;;2.63;;
12493;SDS011;8260;51.422;6.786;2022-09-27T06:31:23;5.63;;;1.77;;
12493;SDS011;8260;51.422;6.786;2022-09-27T06:33:51;2.35;;;1.63;;
12493;SDS011;8260;51.422;6.786;2022-09-27T06:36:20;2.95;;;1.30;;
12493;SDS011;8260;51.422;6.786;2022-09-27T06:38:48;1.83;;;1.55;;
12493;SDS011;8260;51.422;6.786;2022-09-27T06:41:16;2.20;;;1.17;;
12493;SDS011;8260;51.422;6.786;2022-09-27T06:43:46;6.78;;;1.55;;
12493;SDS011;8260;51.422;6.786;2022-09-27T06:46:15;4.38;;;1.42;;
12493;SDS011;8260;51.422;6.786;2022-09-27T06:48:45;4.88;;;1.70;;
12493;SDS011;8260;51.422;6.786;2022-09-27T06:51:14;5.47;;;1.70;;
12493;SDS011;8260;51.422;6.786;2022-09-27T06:53:42;3.08;;;1.50;;
12493;SDS011;8260;51.422;6.786;2022-09-27T06:56:10;4.40;;;1.60;;
12493;SDS011;8260;51.422;6.786;2022-09-27T06:58:39;3.85;;;1.55;;
12493;SDS011;8260;51.422;6.786;2022-09-27T07:01:28;4.03;;;1.65;;
12493;SDS011;8260;51.422;6.786;2022-09-27T07:03:58;2.55;;;1.30;;
12493;SDS011;8260;51.422;6.786;2022-09-27T07:06:26;3.28;;;1.40;;
12493;SDS011;8260;51.422;6.786;2022-09-27T07:08:56;3.00;;;1.42;;
12493;SDS011;8260;51.422;6.786;2022-09-27T07:11:25;2.83;;;1.70;;
12493;SDS011;8260;51.422;6.786;2022-09-27T07:13:54;2.63;;;1.30;;
12493;SDS011;8260;51.422;6.786;2022-09-27T07:16:23;4.05;;;1.30;;
12493;SDS011;8260;51.422;6.786;2022-09-27T07:18:51;4.72;;;1.27;;
12493;SDS011;8260;51.422;6.786;2022-09-27T07:21:21;7.80;;;1.60;;
12493;SDS011;8260;51.422;6.786;2022-09-27T07:23:49;6.75;;;1.70;;
12493;SDS011;8260;51.422;6.786;2022-09-27T07:26:18;2.97;;;1.35;;
12493;SDS011;8260;51.422;6.786;2022-09-27T07:28:46;6.03;;;1.85;;
12493;SDS011;8260;51.422;6.786;2022-09-27T07:31:14;2.28;;;1.38;;
12493;SDS011;8260;51.422;6.786;2022-09-27T07:33:43;2.78;;;1.25;;
12493;SDS011;8260;51.422;6.786;2022-09-27T07:36:12;3.00;;;1.20;;
12493;SDS011;8260;51.422;6.786;2022-09-27T07:38:42;2.10;;;1.40;;
12493;SDS011;8260;51.422;6.786;2022-09-27T07:41:11;1.80;;;1.63;;
12493;SDS011;8260;51.422;6.786;2022-09-27T07:43:40;2.22;;;1.40;;
12493;SDS011;8260;51.422;6.786;2022-09-27T07:46:10;4.30;;;1.70;;
12493;SDS011;8260;51.422;6.786;2022-09-27T07:48:38;4.80;;;1.55;;
12493;SDS011;8260;51.422;6.786;2022-09-27T07:51:07;4.25;;;1.35;;
12493;SDS011;8260;51.422;6.786;2022-09-27T07:53:37;2.22;;;1.20;;
12493;SDS011;8260;51.422;6.786;2022-09-27T07:56:07;5.93;;;1.73;;
12493;SDS011;8260;51.422;6.786;2022-09-27T07:58:35;3.53;;;1.42;;
12493;SDS011;8260;51.422;6.786;2022-09-27T08:01:04;2.90;;;1.25;;
12493;SDS011;8260;51.422;6.786;2022-09-27T08:03:32;1.83;;;1.30;;
12493;SDS011;8260;51.422;6.786;2022-09-27T08:06:01;1.77;;;1.25;;
12493;SDS011;8260;51.422;6.786;2022-09-27T08:08:30;4.38;;;1.45;;
12493;SDS011;8260;51.422;6.786;2022-09-27T08:10:58;1.45;;;1.25;;
12493;SDS011;8260;51.422;6.786;2022-09-27T08:13:28;1.88;;;1.67;;
12493;SDS011;8260;51.422;6.786;2022-09-27T08:16:00;3.35;;;1.20;;
12493;SDS011;8260;51.422;6.786;2022-09-27T08:18:28;1.33;;;1.13;;
12493;SDS011;8260;51.422;6.786;2022-09-27T08:20:57;3.30;;;1.20;;
12493;SDS011;8260;51.422;6.786;2022-09-27T08:23:25;2.63;;;1.15;;
12493;SDS011;8260;51.422;6.786;2022-09-27T08:25:54;2.58;;;1.23;;
12493;SDS011;8260;51.422;6.786;2022-09-27T08:28:24;4.10;;;1.33;;
12493;SDS011;8260;51.422;6.786;2022-09-27T08:30:55;2.67;;;1.40;;
12493;SDS011;8260;51.422;6.786;2022-09-27T08:33:24;2.60;;;1.20;;
12493;SDS011;8260;51.422;6.786;2022-09-27T08:35:59;3.55;;;1.23;;
12493;SDS011;8260;51.422;6.786;2022-09-27T08:38:28;2.28;;;1.10;;
12493;SDS011;8260;51.422;6.786;2022-09-27T08:40:58;1.88;;;1.20;;
12493;SDS011;8260;51.422;6.786;2022-09-27T08:43:31;3.00;;;1.30;;
12493;SDS011;8260;51.422;6.786;2022-09-27T08:46:17;4.13;;;1.30;;
12493;SDS011;8260;51.422;6.786;2022-09-27T08:48:47;3.20;;;1.50;;
12493;SDS011;8260;51.422;6.786;2022-09-27T08:51:17;1.70;;;1.20;;
12493;SDS011;8260;51.422;6.786;2022-09-27T08:53:49;3.72;;;1.42;;
12493;SDS011;8260;51.422;6.786;2022-09-27T08:56:20;3.35;;;1.40;;
12493;SDS011;8260;51.422;6.786;2022-09-27T08:58:50;2.08;;;1.40;;
12493;SDS011;8260;51.422;6.786;2022-09-27T09:01:21;1.73;;;1.38;;
12493;SDS011;8260;51.422;6.786;2022-09-27T09:03:54;1.73;;;1.25;;
12493;SDS011;8260;51.422;6.786;2022-09-27T09:06:25;2.75;;;1.38;;
12493;SDS011;8260;51.422;6.786;2022-09-27T09:08:59;3.05;;;1.20;;
12493;SDS011;8260;51.422;6.786;2022-09-27T09:11:33;1.58;;;1.27;;
12493;SDS011;8260;51.422;6.786;2022-09-27T09:14:26;3.47;;;1.42;;
12493;SDS011;8260;51.422;6.786;2022-09-27T09:17:02;2.85;;;1.83;;
12493;SDS011;8260;51.422;6.786;2022-09-27T09:19:39;3.03;;;1.70;;
12493;SDS011;8260;51.422;6.786;2022-09-27T09:22:13;1.98;;;1.77;;
12493;SDS011;8260;51.422;6.786;2022-09-27T09:24:54;3.55;;;2.03;;
12493;SDS011;8260;51.422;6.786;2022-09-27T09:27:29;3.55;;;2.10;;
12493;SDS011;8260;51.422;6.786;2022-09-27T09:30:02;2.13;;;1.90;;
12493;SDS011;8260;51.422;6.786;2022-09-27T09:32:36;2.70;;;2.08;;
12493;SDS011;8260;51.422;6.786;2022-09-27T09:35:06;2.28;;;2.08;;
12493;SDS011;8260;51.422;6.786;2022-09-27T09:37:38;3.30;;;2.00;;
12493;SDS011;8260;51.422;6.786;2022-09-27T09:42:53;3.42;;;2.30;;
12493;SDS011;8260;51.422;6.786;2022-09-27T09:45:27;2.90;;;2.25;;
12493;SDS011;8260;51.422;6.786;2022-09-27T09:47:59;4.55;;;2.55;;
12493;SDS011;8260;51.422;6.786;2022-09-27T09:50:30;2.80;;;2.58;;
12493;SDS011;8260;51.422;6.786;2022-09-27T09:53:02;3.70;;;2.40;;
12493;SDS011;8260;51.422;6.786;2022-09-27T09:55:32;3.92;;;2.45;;
12493;SDS011;8260;51.422;6.786;2022-09-27T09:58:03;3.40;;;2.90;;
12493;SDS011;8260;51.422;6.786;2022-09-27T10:00:32;4.18;;;3.05;;
12493;SDS011;8260;51.422;6.786;2022-09-27T10:03:02;3.50;;;2.97;;
12493;SDS011;8260;51.422;6.786;2022-09-27T10:05:31;5.07;;;2.92;;
12493;SDS011;8260;51.422;6.786;2022-09-27T10:08:01;3.33;;;3.03;;
12493;SDS011;8260;51.422;6.786;2022-09-27T10:10:31;3.58;;;3.22;;
12493;SDS011;8260;51.422;6.786;2022-09-27T10:13:00;4.50;;;3.28;;
12493;SDS011;8260;51.422;6.786;2022-09-27T10:15:32;3.28;;;2.83;;
12493;SDS011;8260;51.422;6.786;2022-09-27T10:18:00;4.10;;;3.33;;
12493;SDS011;8260;51.422;6.786;2022-09-27T10:20:38;3.63;;;3.28;;
12493;SDS011;8260;51.422;6.786;2022-09-27T10:23:10;4.75;;;3.10;;
12493;SDS011;8260;51.422;6.786;2022-09-27T10:25:44;5.28;;;3.45;;
12493;SDS011;8260;51.422;6.786;2022-09-27T10:28:25;4.88;;;3.75;;
12493;SDS011;8260;51.422;6.786;2022-09-27T10:30:56;4.32;;;3.00;;
12493;SDS011;8260;51.422;6.786;2022-09-27T10:33:26;5.45;;;3.33;;
12493;SDS011;8260;51.422;6.786;2022-09-27T10:35:57;3.40;;;3.10;;
12493;SDS011;8260;51.422;6.786;2022-09-27T10:38:27;3.03;;;2.30;;
12493;SDS011;8260;51.422;6.786;2022-09-27T10:40:56;4.07;;;2.60;;
12493;SDS011;8260;51.422;6.786;2022-09-27T10:43:26;3.08;;;2.15;;
12493;SDS011;8260;51.422;6.786;2022-09-27T10:45:59;3.17;;;2.05;;
12493;SDS011;8260;51.422;6.786;2022-09-27T10:48:30;1.88;;;1.77;;
12493;SDS011;8260;51.422;6.786;2022-09-27T10:51:00;2.53;;;1.70;;
12493;SDS011;8260;51.422;6.786;2022-09-27T10:53:29;1.98;;;1.70;;
12493;SDS011;8260;51.422;6.786;2022-09-27T10:55:58;2.47;;;1.80;;
12493;SDS011;8260;51.422;6.786;2022-09-27T10:58:27;3.63;;;2.08;;
12493;SDS011;8260;51.422;6.786;2022-09-27T11:00:57;3.22;;;2.30;;
12493;SDS011;8260;51.422;6.786;2022-09-27T11:03:27;4.00;;;2.63;;
12493;SDS011;8260;51.422;6.786;2022-09-27T11:05:57;2.83;;;2.63;;
12493;SDS011;8260;51.422;6.786;2022-09-27T11:08:30;3.28;;;2.95;;
12493;SDS011;8260;51.422;6.786;2022-09-27T11:11:00;4.53;;;3.15;;
12493;SDS011;8260;51.422;6.786;2022-09-27T11:13:29;3.50;;;3.20;;
12493;SDS011;8260;51.422;6.786;2022-09-27T11:16:13;6.82;;;3.78;;
12493;SDS011;8260;51.422;6.786;2022-09-27T11:18:48;3.55;;;3.22;;
12493;SDS011;8260;51.422;6.786;2022-09-27T11:21:19;6.18;;;3.60;;
12493;SDS011;8260;51.422;6.786;2022-09-27T11:26:38;4.25;;;3.85;;
12493;SDS011;8260;51.422;6.786;2022-09-27T11:29:16;5.13;;;3.85;;
12493;SDS011;8260;51.422;6.786;2022-09-27T11:31:48;4.10;;;3.70;;
12493;SDS011;8260;51.422;6.786;2022-09-27T11:34:25;3.50;;;3.20;;
12493;SDS011;8260;51.422;6.786;2022-09-27T11:37:07;4.47;;;3.60;;
12493;SDS011;8260;51.422;6.786;2022-09-27T11:39:43;3.90;;;3.50;;
12493;SDS011;8260;51.422;6.786;2022-09-27T11:42:23;6.00;;;3.30;;
12493;SDS011;8260;51.422;6.786;2022-09-27T11:45:01;4.85;;;3.10;;
12493;SDS011;8260;51.422;6.786;2022-09-27T11:47:52;4.13;;;3.63;;
12493;SDS011;8260;51.422;6.786;2022-09-27T11:53:15;4.78;;;3.67;;
12493;SDS011;8260;51.422;6.786;2022-09-27T11:55:49;6.70;;;4.95;;
12493;SDS011;8260;51.422;6.786;2022-09-27T11:58:22;5.45;;;4.40;;
12493;SDS011;8260;51.422;6.786;2022-09-27T12:01:05;5.43;;;4.45;;
12493;SDS011;8260;51.422;6.786;2022-09-27T12:03:45;5.72;;;4.82;;
12493;SDS011;8260;51.422;6.786;2022-09-27T12:06:20;6.85;;;6.15;;
12493;SDS011;8260;51.422;6.786;2022-09-27T12:08:53;4.90;;;3.67;;
12493;SDS011;8260;51.422;6.786;2022-09-27T12:11:25;5.68;;;3.75;;
12493;SDS011;8260;51.422;6.786;2022-09-27T12:13:58;3.55;;;3.25;;
12493;SDS011;8260;51.422;6.786;2022-09-27T12:16:27;4.18;;;3.72;;
12493;SDS011;8260;51.422;6.786;2022-09-27T12:18:57;6.35;;;4.38;;
12493;SDS011;8260;51.422;6.786;2022-09-27T12:21:27;7.18;;;5.63;;
12493;SDS011;8260;51.422;6.786;2022-09-27T12:23:57;7.03;;;6.25;;
12493;SDS011;8260;51.422;6.786;2022-09-27T12:26:30;7.30;;;5.85;;
12493;SDS011;8260;51.422;6.786;2022-09-27T12:29:04;10.63;;;6.20;;
12493;SDS011;8260;51.422;6.786;2022-09-27T12:31:34;8.50;;;5.82;;
12493;SDS011;8260;51.422;6.786;2022-09-27T12:34:08;5.25;;;4.35;;
12493;SDS011;8260;51.422;6.786;2022-09-27T12:36:45;6.15;;;3.55;;
12493;SDS011;8260;51.422;6.786;2022-09-27T12:39:16;4.63;;;3.40;;
12493;SDS011;8260;51.422;6.786;2022-09-27T12:41:47;12.20;;;5.53;;
12493;SDS011;8260;51.422;6.786;2022-09-27T12:44:18;13.82;;;6.35;;
12493;SDS011;8260;51.422;6.786;2022-09-27T12:46:50;12.43;;;5.43;;
12493;SDS011;8260;51.422;6.786;2022-09-27T12:49:23;8.45;;;4.55;;
12493;SDS011;8260;51.422;6.786;2022-09-27T12:51:54;4.00;;;3.20;;
12493;SDS011;8260;51.422;6.786;2022-09-27T12:54:32;4.10;;;3.33;;
12493;SDS011;8260;51.422;6.786;2022-09-27T12:57:07;4.10;;;3.70;;
12493;SDS011;8260;51.422;6.786;2022-09-27T12:59:47;4.30;;;3.45;;
12493;SDS011;8260;51.422;6.786;2022-09-27T13:02:28;4.40;;;3.85;;
12493;SDS011;8260;51.422;6.786;2022-09-27T13:05:01;4.32;;;3.65;;
12493;SDS011;8260;51.422;6.786;2022-09-27T13:07:34;3.55;;;3.25;;
12493;SDS011;8260;51.422;6.786;2022-09-27T13:10:08;4.05;;;3.33;;
12493;SDS011;8260;51.422;6.786;2022-09-27T13:12:39;3.72;;;3.42;;
12493;SDS011;8260;51.422;6.786;2022-09-27T13:15:14;7.40;;;4.57;;
12493;SDS011;8260;51.422;6.786;2022-09-27T13:17:50;13.65;;;4.95;;
12493;SDS011;8260;51.422;6.786;2022-09-27T13:20:36;5.13;;;3.70;;
12493;SDS011;8260;51.422;6.786;2022-09-27T13:23:47;4.50;;;3.05;;
12493;SDS011;8260;51.422;6.786;2022-09-27T13:26:00;6.88;;;3.30;;
12493;SDS011;8260;51.422;6.786;2022-09-27T13:28:32;5.25;;;4.00;;
12493;SDS011;8260;51.422;6.786;2022-09-27T13:31:05;4.10;;;2.67;;
12493;SDS011;8260;51.422;6.786;2022-09-27T13:33:41;5.47;;;3.22;;
12493;SDS011;8260;51.422;6.786;2022-09-27T13:36:28;4.55;;;2.53;;
12493;SDS011;8260;51.422;6.786;2022-09-27T13:39:13;5.28;;;2.70;;
12493;SDS011;8260;51.422;6.786;2022-09-27T13:41:57;2.92;;;1.73;;
12493;SDS011;8260;51.422;6.786;2022-09-27T13:44:31;1.77;;;1.52;;
12493;SDS011;8260;51.422;6.786;2022-09-27T13:47:14;1.85;;;1.40;;
12493;SDS011;8260;51.422;6.786;2022-09-27T13:49:49;1.60;;;1.50;;
12493;SDS011;8260;51.422;6.786;2022-09-27T13:52:21;4.50;;;1.67;;
12493;SDS011;8260;51.422;6.786;2022-09-27T13:54:53;2.33;;;1.30;;
12493;SDS011;8260;51.422;6.786;2022-09-27T13:57:41;2.85;;;1.23;;
12493;SDS011;8260;51.422;6.786;2022-09-27T14:00:10;1.38;;;1.05;;
12493;SDS011;8260;51.422;6.786;2022-09-27T14:02:44;1.67;;;1.10;;
12493;SDS011;8260;51.422;6.786;2022-09-27T14:05:18;1.92;;;1.35;;
12493;SDS011;8260;51.422;6.786;2022-09-27T14:07:48;1.40;;;1.30;;
12493;SDS011;8260;51.422;6.786;2022-09-27T14:10:18;1.27;;;1.17;;
12493;SDS011;8260;51.422;6.786;2022-09-27T14:12:49;2.72;;;1.02;;
12493;SDS011;8260;51.422;6.786;2022-09-27T14:15:20;1.83;;;1.13;;
12493;SDS011;8260;51.422;6.786;2022-09-27T14:17:51;3.38;;;1.15;;
12493;SDS011;8260;51.422;6.786;2022-09-27T14:23:14;3.13;;;1.50;;
12493;SDS011;8260;51.422;6.786;2022-09-27T14:25:43;2.15;;;1.50;;
12493;SDS011;8260;51.422;6.786;2022-09-27T14:28:19;1.60;;;1.40;;
12493;SDS011;8260;51.422;6.786;2022-09-27T14:31:03;2.95;;;1.40;;
12493;SDS011;8260;51.422;6.786;2022-09-27T14:33:33;2.55;;;1.23;;
12493;SDS011;8260;51.422;6.786;2022-09-27T14:36:02;1.17;;;1.08;;
12493;SDS011;8260;51.422;6.786;2022-09-27T14:38:51;2.45;;;1.35;;
12493;SDS011;8260;51.422;6.786;2022-09-27T14:41:23;1.77;;;1.23;;
12493;SDS011;8260;51.422;6.786;2022-09-27T14:43:53;1.08;;;0.98;;
12493;SDS011;8260;51.422;6.786;2022-09-27T14:46:25;1.77;;;1.30;;
12493;SDS011;8260;51.422;6.786;2022-09-27T14:48:55;1.27;;;1.17;;
12493;SDS011;8260;51.422;6.786;2022-09-27T14:51:26;2.33;;;1.38;;
12493;SDS011;8260;51.422;6.786;2022-09-27T14:53:55;2.97;;;1.20;;
12493;SDS011;8260;51.422;6.786;2022-09-27T14:56:26;1.65;;;1.10;;
12493;SDS011;8260;51.422;6.786;2022-09-27T14:58:57;5.10;;;1.48;;
12493;SDS011;8260;51.422;6.786;2022-09-27T15:01:28;3.30;;;1.25;;
12493;SDS011;8260;51.422;6.786;2022-09-27T15:04:03;1.48;;;1.38;;
12493;SDS011;8260;51.422;6.786;2022-09-27T15:06:32;2.38;;;1.50;;
12493;SDS011;8260;51.422;6.786;2022-09-27T15:09:02;2.58;;;1.23;;
12493;SDS011;8260;51.422;6.786;2022-09-27T15:11:32;2.97;;;1.40;;
12493;SDS011;8260;51.422;6.786;2022-09-27T15:14:00;2.08;;;1.20;;
12493;SDS011;8260;51.422;6.786;2022-09-27T15:16:29;3.10;;;1.50;;
12493;SDS011;8260;51.422;6.786;2022-09-27T15:18:58;3.90;;;1.40;;
12493;SDS011;8260;51.422;6.786;2022-09-27T15:21:30;1.98;;;1.40;;
12493;SDS011;8260;51.422;6.786;2022-09-27T15:23:59;3.80;;;1.30;;
12493;SDS011;8260;51.422;6.786;2022-09-27T15:26:33;4.05;;;1.45;;
12493;SDS011;8260;51.422;6.786;2022-09-27T15:29:02;2.05;;;1.50;;
12493;SDS011;8260;51.422;6.786;2022-09-27T15:31:31;2.95;;;1.20;;
12493;SDS011;8260;51.422;6.786;2022-09-27T15:34:00;2.55;;;1.30;;
12493;SDS011;8260;51.422;6.786;2022-09-27T15:39:28;5.40;;;1.60;;